This is the latest recevied weather packets stored in our database for station/object DB2AG-13. If no packets are shown the sender has not sent any weather packets the latest 10 day(s).
| Time | Temp. | Humidity | Pressure | Rain* | Wind** | Luminosity | Snow |
|---|---|---|---|---|---|---|---|
| 1787924608 | 27.78° C | 46% | 1009.9 hPa | - | - | - | - |
| 1787924064 | 27.78° C | 45% | 1009.8 hPa | - | - | - | - |
| 1787923521 | 28.33° C | 45% | 1009.9 hPa | - | - | - | - |
| 1787922984 | 28.33° C | 45% | 1010 hPa | - | - | - | - |
| 1787922441 | 28.33° C | 45% | 1010 hPa | - | - | - | - |
| 1787921902 | 28.33° C | 44% | 1010.5 hPa | - | - | - | - |
| 1787921369 | 27.78° C | 44% | 1009.9 hPa | - | - | - | - |
| 1787920836 | 27.22° C | 46% | 1010.3 hPa | - | - | - | - |
| 1787920300 | 26.67° C | 48% | 1010.3 hPa | - | - | - | - |
| 1787919219 | 25.56° C | 49% | 1010.4 hPa | - | - | - | - |
| 1787918677 | 25.56° C | 48% | 1010.3 hPa | - | - | - | - |
| 1787918132 | 25.56° C | 49% | 1010.3 hPa | - | - | - | - |
| 1787917590 | 25.56° C | 49% | 1010.4 hPa | - | - | - | - |
| 1787917047 | 25.56° C | 49% | 1010.4 hPa | - | - | - | - |
| 1787916501 | 25.56° C | 49% | 1010.5 hPa | - | - | - | - |
| 1787915426 | 26.11° C | 47% | 1010.3 hPa | - | - | - | - |
| 1787914884 | 26.67° C | 46% | 1010.5 hPa | - | - | - | - |
| 1787914344 | 26.67° C | 45% | 1010.5 hPa | - | - | - | - |
| 1787913805 | 27.22° C | 44% | 1010.4 hPa | - | - | - | - |
| 1787913265 | 27.22° C | 42% | 1010.2 hPa | - | - | - | - |
| 1787912722 | 27.78° C | 41% | 1009.9 hPa | - | - | - | - |
| 1787911642 | 29.44° C | 38% | 1009.8 hPa | - | - | - | - |
| 1787911103 | 30.56° C | 35% | 1009.8 hPa | - | - | - | - |
| 1787910564 | 31.11° C | 36% | 1009.7 hPa | - | - | - | - |
| 1787910026 | 30.56° C | 37% | 1009.6 hPa | - | - | - | - |
* Rain since midnight (hover to see other rain measurements)
** Current wind speed in m/s (hover to see current wind gust speed)